createdAt,value
2023-01-02T00:00:06.569Z,100784.94
2023-01-02T00:00:45.060Z,100769.31
2023-01-02T00:01:17.526Z,100776.34
2023-01-02T00:01:49.479Z,100775.56
2023-01-02T00:02:21.345Z,100776.34
2023-01-02T00:02:53.324Z,100776.84
2023-01-02T00:03:25.412Z,100780.06
2023-01-02T00:03:58.292Z,100784.47
2023-01-02T00:04:30.222Z,100777.81
2023-01-02T00:05:02.090Z,100772.22
2023-01-02T00:05:35.888Z,100781.06
2023-01-02T00:06:08.151Z,100780.06
2023-01-02T00:06:40.329Z,100780.69
2023-01-02T00:07:12.231Z,100787.53
2023-01-02T00:07:44.092Z,100779.25
2023-01-02T00:08:17.456Z,100778.44
2023-01-02T00:08:49.566Z,100780.06
2023-01-02T00:09:21.521Z,100783.31
2023-01-02T00:09:53.357Z,100782.94
2023-01-02T00:10:25.315Z,100790.16
2023-01-02T00:10:57.176Z,100779.37
2023-01-02T00:11:29.133Z,100781.22
2023-01-02T00:12:01.305Z,100787.06
2023-01-02T00:12:33.160Z,100784.94
2023-01-02T00:13:05.061Z,100786.09
2023-01-02T00:13:36.926Z,100784.97
2023-01-02T00:14:08.762Z,100784.81
2023-01-02T00:14:40.628Z,100783.00
2023-01-02T00:15:12.525Z,100789.22
2023-01-02T00:15:44.390Z,100781.28
2023-01-02T00:16:16.302Z,100776.25
2023-01-02T00:16:48.136Z,100782.63
2023-01-02T00:17:20.690Z,100769.41
2023-01-02T00:17:52.532Z,100782.09
2023-01-02T00:18:24.382Z,100783.72
2023-01-02T00:18:56.193Z,100777.16
2023-01-02T00:19:28.046Z,100777.81
2023-01-02T00:20:00.563Z,100783.00
2023-01-02T00:20:33.932Z,100777.50
2023-01-02T00:21:06.811Z,100782.37
2023-01-02T00:21:38.633Z,100780.13
2023-01-02T00:22:10.572Z,100777.50
2023-01-02T00:22:42.722Z,100782.72
2023-01-02T00:23:14.605Z,100782.44
2023-01-02T00:23:46.428Z,100775.91
2023-01-02T00:24:18.379Z,100782.00
2023-01-02T00:24:50.246Z,100781.19
2023-01-02T00:25:22.075Z,100781.22
2023-01-02T00:25:53.913Z,100777.34
2023-01-02T00:26:25.852Z,100781.84
2023-01-02T00:26:58.390Z,100776.72
2023-01-02T00:27:30.221Z,100780.41
2023-01-02T00:28:02.628Z,100779.25
2023-01-02T00:28:36.038Z,100779.91
2023-01-02T00:29:07.926Z,100780.28
2023-01-02T00:29:40.015Z,100777.72
2023-01-02T00:30:12.433Z,100779.19
2023-01-02T00:30:44.286Z,100775.72
2023-01-02T00:31:16.159Z,100778.59
2023-01-02T00:31:48.090Z,100780.63
2023-01-02T00:32:20.070Z,100779.81
2023-01-02T00:32:51.961Z,100773.53
2023-01-02T00:33:24.145Z,100773.56
2023-01-02T00:33:55.982Z,100780.25
2023-01-02T00:34:27.849Z,100774.94
2023-01-02T00:34:59.725Z,100772.97
2023-01-02T00:35:31.558Z,100779.00
2023-01-02T00:36:08.295Z,100782.34
2023-01-02T00:36:40.126Z,100782.06
2023-01-02T00:37:11.959Z,100778.81
2023-01-02T00:37:43.910Z,100781.06
2023-01-02T00:38:17.854Z,100778.78
2023-01-02T00:38:50.007Z,100777.78
2023-01-02T00:39:23.369Z,100780.41
2023-01-02T00:39:55.265Z,100778.66
2023-01-02T00:40:27.574Z,100779.44
2023-01-02T00:40:59.453Z,100775.69
2023-01-02T00:41:31.293Z,100772.63
2023-01-02T00:42:03.223Z,100774.94
2023-01-02T00:42:35.086Z,100773.47
2023-01-02T00:43:07.017Z,100771.50
2023-01-02T00:43:40.046Z,100768.47
2023-01-02T00:44:12.214Z,100774.50
2023-01-02T00:44:44.099Z,100770.16
2023-01-02T00:45:15.981Z,100772.56
2023-01-02T00:45:48.848Z,100765.72
2023-01-02T00:46:20.865Z,100763.59
2023-01-02T00:46:52.767Z,100773.00
2023-01-02T00:47:24.787Z,100766.66
2023-01-02T00:47:56.671Z,100772.00
2023-01-02T00:48:28.505Z,100770.00
2023-01-02T00:49:00.395Z,100779.81
2023-01-02T00:49:32.524Z,100768.41
2023-01-02T00:50:05.353Z,100775.56
2023-01-02T00:50:37.195Z,100772.00
2023-01-02T00:51:09.240Z,100776.72
2023-01-02T00:51:41.127Z,100772.03
2023-01-02T00:52:12.986Z,100770.56
2023-01-02T00:52:44.980Z,100768.63
2023-01-02T00:53:17.226Z,100771.41
2023-01-02T00:53:49.078Z,100775.47
2023-01-02T00:54:21.351Z,100773.47
2023-01-02T00:54:53.488Z,100771.69
2023-01-02T00:55:25.355Z,100771.72
2023-01-02T00:55:57.301Z,100771.41
2023-01-02T00:56:29.215Z,100773.66
2023-01-02T00:57:01.138Z,100775.28
2023-01-02T00:57:33.012Z,100778.69
2023-01-02T00:58:04.871Z,100786.69
2023-01-02T00:58:38.702Z,100785.03
2023-01-02T00:59:10.509Z,100780.97
2023-01-02T00:59:42.340Z,100786.06
2023-01-02T01:00:21.607Z,100783.97
2023-01-02T01:00:55.736Z,100786.37
2023-01-02T01:01:27.921Z,100780.25
2023-01-02T01:01:59.923Z,100786.63
2023-01-02T01:02:31.935Z,100782.87
2023-01-02T01:03:03.898Z,100786.00
2023-01-02T01:03:35.818Z,100790.41
2023-01-02T01:04:07.799Z,100784.53
2023-01-02T01:04:39.722Z,100786.19
2023-01-02T01:05:11.568Z,100790.59
2023-01-02T01:05:43.672Z,100779.84
2023-01-02T01:06:15.567Z,100789.09
2023-01-02T01:06:47.578Z,100781.47
2023-01-02T01:07:19.530Z,100784.06
2023-01-02T01:07:51.727Z,100793.34
2023-01-02T01:08:23.594Z,100784.88
2023-01-02T01:08:55.424Z,100784.56
2023-01-02T01:09:27.952Z,100785.56
2023-01-02T01:09:59.794Z,100781.66
2023-01-02T01:10:31.735Z,100782.31
2023-01-02T01:11:08.592Z,100789.13
2023-01-02T01:11:40.504Z,100783.91
2023-01-02T01:12:12.377Z,100782.00
2023-01-02T01:12:44.202Z,100791.75
2023-01-02T01:13:16.052Z,100783.13
2023-01-02T01:13:48.071Z,100780.66
2023-01-02T01:14:20.026Z,100794.66
2023-01-02T01:14:51.887Z,100782.16
2023-01-02T01:15:23.740Z,100779.87
2023-01-02T01:15:55.604Z,100782.63
2023-01-02T01:16:27.854Z,100782.97
2023-01-02T01:17:00.564Z,100778.78
2023-01-02T01:17:33.367Z,100786.37
2023-01-02T01:18:05.259Z,100786.56
2023-01-02T01:18:38.378Z,100780.88
2023-01-02T01:19:10.356Z,100786.88
2023-01-02T01:19:42.184Z,100776.16
2023-01-02T01:20:14.116Z,100776.16
2023-01-02T01:20:45.962Z,100782.97
2023-01-02T01:21:20.717Z,100785.25
2023-01-02T01:21:52.846Z,100784.59
2023-01-02T01:22:24.814Z,100785.91
2023-01-02T01:22:56.743Z,100775.97
2023-01-02T01:23:28.581Z,100775.50
2023-01-02T01:24:00.485Z,100772.25
2023-01-02T01:24:32.369Z,100782.00
2023-01-02T01:25:04.526Z,100780.09
2023-01-02T01:25:37.129Z,100775.84
2023-01-02T01:26:13.410Z,100779.09
2023-01-02T01:26:45.362Z,100781.06
2023-01-02T01:27:17.620Z,100777.47
2023-01-02T01:27:53.299Z,100776.81
2023-01-02T01:28:25.366Z,100774.19
2023-01-02T01:28:57.236Z,100780.34
2023-01-02T01:29:29.082Z,100782.44
2023-01-02T01:30:00.935Z,100786.19
2023-01-02T01:30:32.814Z,100779.50
2023-01-02T01:31:06.197Z,100782.91
2023-01-02T01:31:40.327Z,100776.72
2023-01-02T01:32:12.901Z,100780.34
2023-01-02T01:32:45.051Z,100776.44
2023-01-02T01:33:16.902Z,100774.00
2023-01-02T01:33:49.235Z,100778.38
2023-01-02T01:34:21.075Z,100779.22
2023-01-02T01:34:52.916Z,100772.09
2023-01-02T01:35:24.755Z,100773.56
2023-01-02T01:36:04.648Z,100767.72
2023-01-02T01:36:37.073Z,100773.38
2023-01-02T01:37:09.052Z,100765.44
2023-01-02T01:37:40.914Z,100766.72
2023-01-02T01:38:13.116Z,100765.28
2023-01-02T01:38:45.887Z,100767.69
2023-01-02T01:39:17.813Z,100768.00
2023-01-02T01:39:56.177Z,100772.06
2023-01-02T01:40:28.561Z,100765.06
2023-01-02T01:41:01.612Z,100766.69
2023-01-02T01:41:33.445Z,100768.66
2023-01-02T01:42:05.334Z,100763.94
2023-01-02T01:42:37.194Z,100767.97
2023-01-02T01:43:15.282Z,100767.03
2023-01-02T01:43:51.453Z,100763.16
2023-01-02T01:44:42.638Z,100760.53
2023-01-02T01:45:15.104Z,100762.78
2023-01-02T01:45:46.986Z,100762.16
2023-01-02T01:46:25.185Z,100757.59
2023-01-02T01:46:57.054Z,100754.66
2023-01-02T01:47:43.832Z,100751.22
2023-01-02T01:48:17.550Z,100749.44
2023-01-02T01:49:04.651Z,100749.44
2023-01-02T01:49:36.483Z,100749.44
2023-01-02T01:50:14.151Z,100750.41
2023-01-02T01:50:46.145Z,100743.25
2023-01-02T01:51:20.080Z,100746.97
2023-01-02T01:51:58.606Z,100749.56
2023-01-02T01:52:33.424Z,100739.00
2023-01-02T01:53:16.830Z,100742.25
2023-01-02T01:53:52.390Z,100742.56
2023-01-02T01:54:33.585Z,100744.06
2023-01-02T01:55:17.248Z,100745.22
2023-01-02T01:55:55.570Z,100747.66
2023-01-02T01:56:27.941Z,100742.28
2023-01-02T01:57:05.451Z,100741.66
2023-01-02T01:57:42.658Z,100734.31
2023-01-02T01:58:19.197Z,100741.13
2023-01-02T01:58:51.094Z,100738.22
2023-01-02T01:59:23.458Z,100737.72
2023-01-02T01:59:57.865Z,100738.03
2023-01-02T02:00:30.249Z,100740.81
2023-01-02T02:01:03.314Z,100739.00
2023-01-02T02:01:35.558Z,100736.06
2023-01-02T02:02:08.352Z,100735.56
2023-01-02T02:02:46.135Z,100733.47
2023-01-02T02:03:22.278Z,100735.25
2023-01-02T02:03:54.340Z,100737.41
2023-01-02T02:04:26.705Z,100736.59
2023-01-02T02:05:02.585Z,100734.81
2023-01-02T02:05:34.896Z,100731.91
2023-01-02T02:06:07.117Z,100725.69
2023-01-02T02:06:39.741Z,100724.91
2023-01-02T02:07:12.449Z,100727.19
2023-01-02T02:07:55.448Z,100725.06
2023-01-02T02:08:49.828Z,100727.84
2023-01-02T02:09:47.386Z,100727.22
2023-01-02T02:10:19.456Z,100720.91
2023-01-02T02:10:53.019Z,100727.09
2023-01-02T02:11:25.232Z,100726.22
2023-01-02T02:11:57.255Z,100726.03
2023-01-02T02:12:30.989Z,100722.09
2023-01-02T02:13:03.261Z,100719.19
2023-01-02T02:13:35.474Z,100723.59
2023-01-02T02:14:07.343Z,100722.44
2023-01-02T02:14:39.201Z,100730.75
2023-01-02T02:15:17.910Z,100729.78
2023-01-02T02:16:16.934Z,100720.53
2023-01-02T02:17:19.044Z,100719.19
2023-01-02T02:18:30.962Z,100717.25
2023-01-02T02:19:05.920Z,100723.06
2023-01-02T02:20:06.599Z,100717.06
2023-01-02T02:20:38.475Z,100719.53
2023-01-02T02:21:19.179Z,100716.34
2023-01-02T02:22:18.520Z,100711.97
2023-01-02T02:23:25.336Z,100712.88
2023-01-02T02:24:06.116Z,100715.28
2023-01-02T02:24:44.205Z,100712.72
2023-01-02T02:25:51.907Z,100715.53
2023-01-02T02:26:39.928Z,100716.28
2023-01-02T02:27:23.864Z,100717.28
2023-01-02T02:28:23.618Z,100715.94
2023-01-02T02:29:13.890Z,100705.84
2023-01-02T02:30:04.743Z,100712.69
2023-01-02T02:31:05.447Z,100713.00
2023-01-02T02:32:01.390Z,100709.44
2023-01-02T02:32:51.888Z,100708.78
2023-01-02T02:33:47.012Z,100710.56
2023-01-02T02:34:26.513Z,100714.34
2023-01-02T02:35:15.328Z,100709.78
2023-01-02T02:36:16.865Z,100708.19
2023-01-02T02:37:06.826Z,100710.12
2023-01-02T02:38:07.394Z,100701.72
2023-01-02T02:38:54.125Z,100705.56
2023-01-02T02:39:53.646Z,100705.06
2023-01-02T02:40:58.141Z,100706.69
2023-01-02T02:41:42.627Z,100701.97
2023-01-02T02:42:36.133Z,100702.28
2023-01-02T02:43:17.386Z,100708.13
2023-01-02T02:44:14.064Z,100697.38
2023-01-02T02:44:48.471Z,100697.38
2023-01-02T02:45:47.741Z,100697.44
2023-01-02T02:47:18.274Z,100691.94
2023-01-02T02:48:02.434Z,100694.47
2023-01-02T02:48:47.426Z,100694.47
2023-01-02T02:49:57.310Z,100692.34
2023-01-02T02:50:47.865Z,100700.00
2023-01-02T02:51:22.957Z,100701.28
2023-01-02T02:52:10.706Z,100701.19
2023-01-02T02:52:47.333Z,100695.47
2023-01-02T02:53:24.680Z,100705.88
2023-01-02T02:54:04.588Z,100708.78
2023-01-02T02:54:44.752Z,100712.72
2023-01-02T02:55:35.459Z,100707.66
2023-01-02T02:56:10.459Z,100705.22
2023-01-02T02:56:43.917Z,100704.87
2023-01-02T02:57:16.637Z,100706.00
2023-01-02T02:57:51.886Z,100702.28
2023-01-02T02:58:26.258Z,100705.22
2023-01-02T02:58:59.383Z,100704.87
2023-01-02T02:59:33.676Z,100705.75
2023-01-02T03:00:09.610Z,100701.69
2023-01-02T03:00:41.502Z,100701.34
2023-01-02T03:01:18.643Z,100702.03
2023-01-02T03:01:51.107Z,100708.88
2023-01-02T03:02:23.215Z,100706.91
2023-01-02T03:02:55.260Z,100705.63
2023-01-02T03:03:27.975Z,100706.06
2023-01-02T03:03:59.882Z,100705.41
2023-01-02T03:04:32.073Z,100699.41
2023-01-02T03:05:07.774Z,100698.47
2023-01-02T03:05:42.098Z,100697.78
2023-01-02T03:06:16.983Z,100702.84
2023-01-02T03:07:17.975Z,100701.09
2023-01-02T03:08:07.377Z,100701.91
2023-01-02T03:08:45.288Z,100694.22
2023-01-02T03:10:07.967Z,100698.72
2023-01-02T03:11:02.563Z,100700.66
2023-01-02T03:11:40.120Z,100700.34
2023-01-02T03:12:36.667Z,100702.94
2023-01-02T03:13:41.374Z,100710.09
2023-01-02T03:14:42.775Z,100717.41
2023-01-02T03:15:40.089Z,100713.16
2023-01-02T03:16:23.826Z,100705.16
2023-01-02T03:17:03.883Z,100713.75
2023-01-02T03:18:11.107Z,100707.75
2023-01-02T03:19:09.613Z,100706.12
2023-01-02T03:19:52.561Z,100704.84
2023-01-02T03:20:29.199Z,100700.28
2023-01-02T03:21:10.981Z,100694.75
2023-01-02T03:21:46.209Z,100696.84
2023-01-02T03:22:21.718Z,100696.69
2023-01-02T03:23:00.096Z,100699.13
2023-01-02T03:23:39.204Z,100697.84
2023-01-02T03:24:16.430Z,100705.00
2023-01-02T03:24:53.176Z,100699.13
2023-01-02T03:25:25.682Z,100705.00
2023-01-02T03:25:59.398Z,100701.59
2023-01-02T03:26:34.362Z,100700.28
2023-01-02T03:27:12.906Z,100697.84
2023-01-02T03:27:48.436Z,100698.34
2023-01-02T03:28:23.639Z,100691.84
2023-01-02T03:29:00.334Z,100697.53
2023-01-02T03:29:38.970Z,100702.25
2023-01-02T03:30:19.479Z,100694.44
2023-01-02T03:30:56.097Z,100696.38
2023-01-02T03:31:32.678Z,100692.19
2023-01-02T03:32:10.558Z,100701.91
2023-01-02T03:33:28.911Z,100696.69
2023-01-02T03:34:18.116Z,100700.00
2023-01-02T03:34:51.564Z,100697.25
2023-01-02T03:36:09.527Z,100686.03
2023-01-02T03:36:43.630Z,100693.88
2023-01-02T03:37:21.886Z,100693.53
2023-01-02T03:37:57.767Z,100693.88
2023-01-02T03:38:35.938Z,100691.28
2023-01-02T03:39:15.662Z,100692.56
2023-01-02T03:39:53.427Z,100694.41
2023-01-02T03:40:30.693Z,100686.00
2023-01-02T03:41:11.664Z,100690.53
2023-01-02T03:42:07.686Z,100694.06
2023-01-02T03:42:46.027Z,100691.94
2023-01-02T03:43:24.272Z,100691.13
2023-01-02T03:43:57.593Z,100698.72
2023-01-02T03:44:40.411Z,100696.81
2023-01-02T03:45:33.250Z,100693.59
2023-01-02T03:46:44.939Z,100686.41
2023-01-02T03:47:47.759Z,100685.75
2023-01-02T03:48:39.773Z,100690.28
2023-01-02T03:49:18.795Z,100697.50
2023-01-02T03:49:54.622Z,100688.19
2023-01-02T03:50:34.198Z,100687.03
2023-01-02T03:51:07.021Z,100691.00
2023-01-02T03:51:39.039Z,100692.59
2023-01-02T03:52:11.179Z,100688.41
2023-01-02T03:52:43.124Z,100685.63
2023-01-02T03:53:15.207Z,100689.00
2023-01-02T03:53:50.113Z,100681.81
2023-01-02T03:54:22.856Z,100687.87
2023-01-02T03:54:56.756Z,100692.28
2023-01-02T03:55:31.655Z,100683.50
2023-01-02T03:56:06.578Z,100682.06
2023-01-02T03:56:59.017Z,100685.28
2023-01-02T03:57:43.609Z,100690.63
2023-01-02T03:58:33.587Z,100694.53
2023-01-02T03:59:21.714Z,100688.53
2023-01-02T04:00:12.477Z,100690.31
2023-01-02T04:00:52.983Z,100696.00
2023-01-02T04:01:57.437Z,100694.25
2023-01-02T04:02:49.317Z,100696.06
2023-01-02T04:03:30.870Z,100688.09
2023-01-02T04:04:20.727Z,100687.41
2023-01-02T04:05:04.660Z,100687.03
2023-01-02T04:05:49.609Z,100685.16
2023-01-02T04:06:29.224Z,100683.81
2023-01-02T04:07:04.706Z,100690.03
2023-01-02T04:08:07.467Z,100684.66
2023-01-02T04:08:45.711Z,100690.34
2023-01-02T04:09:24.263Z,100692.03
2023-01-02T04:09:59.212Z,100687.28
2023-01-02T04:10:32.171Z,100692.50
2023-01-02T04:11:06.915Z,100692.50
2023-01-02T04:11:43.222Z,100696.53
2023-01-02T04:12:20.422Z,100691.34
2023-01-02T04:12:55.103Z,100693.91
2023-01-02T04:13:32.701Z,100692.59
2023-01-02T04:14:20.160Z,100684.66
2023-01-02T04:14:59.793Z,100696.81
2023-01-02T04:15:35.054Z,100688.88
2023-01-02T04:16:10.850Z,100699.13
2023-01-02T04:16:45.955Z,100701.87
2023-01-02T04:17:22.279Z,100694.87
2023-01-02T04:18:02.365Z,100695.38
2023-01-02T04:18:46.247Z,100705.78
2023-01-02T04:19:37.885Z,100704.66
2023-01-02T04:20:11.952Z,100701.22
2023-01-02T04:20:49.956Z,100704.31
2023-01-02T04:21:26.345Z,100700.75
2023-01-02T04:22:03.052Z,100706.28
2023-01-02T04:22:50.827Z,100705.94
2023-01-02T04:23:54.549Z,100703.00
2023-01-02T04:24:32.748Z,100703.34
2023-01-02T04:25:16.427Z,100706.75
2023-01-02T04:25:54.397Z,100706.91
2023-01-02T04:26:35.733Z,100710.12
2023-01-02T04:27:13.775Z,100711.47
2023-01-02T04:27:59.319Z,100709.50
2023-01-02T04:28:33.688Z,100706.94
2023-01-02T04:29:05.597Z,100709.56
2023-01-02T04:29:37.589Z,100700.78
2023-01-02T04:30:09.834Z,100709.84
2023-01-02T04:30:46.672Z,100704.00
2023-01-02T04:31:42.280Z,100706.28
2023-01-02T04:32:26.126Z,100702.41
2023-01-02T04:33:04.640Z,100708.72
2023-01-02T04:33:47.838Z,100707.87
2023-01-02T04:34:22.398Z,100710.78
2023-01-02T04:34:55.201Z,100705.25
2023-01-02T04:35:27.723Z,100709.47
2023-01-02T04:36:11.254Z,100711.72
2023-01-02T04:36:43.503Z,100711.91
2023-01-02T04:37:34.963Z,100709.81
2023-01-02T04:38:11.729Z,100713.72
2023-01-02T04:38:45.397Z,100718.94
2023-01-02T04:39:21.015Z,100714.72
2023-01-02T04:39:59.150Z,100712.16
2023-01-02T04:40:31.227Z,100714.09
2023-01-02T04:41:04.465Z,100712.94
2023-01-02T04:41:38.100Z,100714.41
2023-01-02T04:42:09.969Z,100715.37
2023-01-02T04:42:41.860Z,100718.94
2023-01-02T04:43:19.763Z,100717.66
2023-01-02T04:43:51.605Z,100716.34
2023-01-02T04:44:23.442Z,100716.34
2023-01-02T04:44:55.366Z,100716.53
2023-01-02T04:45:27.267Z,100714.09
2023-01-02T04:45:59.276Z,100720.62
2023-01-02T04:46:31.509Z,100716.03
2023-01-02T04:47:03.419Z,100717.69
2023-01-02T04:47:35.336Z,100724.16
2023-01-02T04:48:07.182Z,100725.78
2023-01-02T04:48:39.311Z,100726.13
2023-01-02T04:49:11.174Z,100719.63
2023-01-02T04:49:43.008Z,100726.13
2023-01-02T04:50:15.290Z,100726.75
2023-01-02T04:50:48.898Z,100721.91
2023-01-02T04:51:21.290Z,100719.63
2023-01-02T04:51:53.130Z,100722.53
2023-01-02T04:52:25.017Z,100720.94
2023-01-02T04:52:56.841Z,100723.84
2023-01-02T04:53:28.754Z,100721.56
2023-01-02T04:54:00.883Z,100723.00
2023-01-02T04:54:32.724Z,100721.25
2023-01-02T04:55:09.755Z,100718.03
2023-01-02T04:55:41.818Z,100718.00
2023-01-02T04:56:13.838Z,100721.09
2023-01-02T04:56:45.686Z,100724.84
2023-01-02T04:57:17.583Z,100719.97
2023-01-02T04:57:49.462Z,100718.69
2023-01-02T04:58:21.503Z,100726.94
2023-01-02T04:58:53.386Z,100724.50
2023-01-02T04:59:25.549Z,100724.50
2023-01-02T04:59:57.421Z,100715.41
2023-01-02T05:00:29.563Z,100722.22
2023-01-02T05:01:01.453Z,100719.00
2023-01-02T05:01:33.423Z,100721.13
2023-01-02T05:02:05.511Z,100726.13
2023-01-02T05:02:40.165Z,100719.28
2023-01-02T05:03:12.257Z,100724.84
2023-01-02T05:03:47.063Z,100727.41
2023-01-02T05:04:19.081Z,100720.59
2023-01-02T05:04:51.324Z,100720.56
2023-01-02T05:05:23.269Z,100721.22
2023-01-02T05:06:02.358Z,100720.41
2023-01-02T05:06:34.219Z,100723.34
2023-01-02T05:07:06.250Z,100721.06
2023-01-02T05:07:38.415Z,100717.97
2023-01-02T05:08:16.362Z,100721.22
2023-01-02T05:08:48.653Z,100718.63
2023-01-02T05:09:20.533Z,100715.84
2023-01-02T05:09:52.706Z,100714.91
2023-01-02T05:10:24.711Z,100710.19
2023-01-02T05:10:56.576Z,100712.94
2023-01-02T05:11:28.443Z,100711.28
2023-01-02T05:12:00.259Z,100706.72
2023-01-02T05:12:36.449Z,100707.56
2023-01-02T05:13:08.298Z,100707.25
2023-01-02T05:13:40.501Z,100708.91
2023-01-02T05:14:12.361Z,100712.44
2023-01-02T05:14:44.271Z,100717.97
2023-01-02T05:15:16.511Z,100706.41
2023-01-02T05:15:56.000Z,100714.41
2023-01-02T05:16:27.849Z,100707.22
2023-01-02T05:16:59.941Z,100711.97
2023-01-02T05:17:35.918Z,100712.59
2023-01-02T05:18:07.737Z,100709.50
2023-01-02T05:18:39.759Z,100714.06
2023-01-02T05:19:12.489Z,100701.72
2023-01-02T05:19:44.337Z,100711.31
2023-01-02T05:20:16.561Z,100709.88
2023-01-02T05:20:48.622Z,100707.81
2023-01-02T05:21:39.007Z,100710.22
2023-01-02T05:22:31.011Z,100709.56
2023-01-02T05:23:21.449Z,100709.56
2023-01-02T05:23:53.572Z,100706.47
2023-01-02T05:24:26.877Z,100703.06
2023-01-02T05:24:58.774Z,100705.34
2023-01-02T05:25:35.815Z,100704.19
2023-01-02T05:26:11.685Z,100705.63
2023-01-02T05:26:43.558Z,100708.28
2023-01-02T05:27:15.696Z,100702.94
2023-01-02T05:27:47.555Z,100708.28
2023-01-02T05:28:19.418Z,100707.31
2023-01-02T05:28:54.990Z,100709.06
2023-01-02T05:29:26.830Z,100704.38
2023-01-02T05:29:58.666Z,100708.09
2023-01-02T05:30:30.918Z,100705.34
2023-01-02T05:31:02.811Z,100714.09
2023-01-02T05:31:34.750Z,100712.75
2023-01-02T05:32:06.565Z,100703.00
2023-01-02T05:32:38.445Z,100708.22
2023-01-02T05:33:10.271Z,100708.72
2023-01-02T05:33:42.116Z,100705.31
2023-01-02T05:34:15.755Z,100712.09
2023-01-02T05:34:47.585Z,100713.69
2023-01-02T05:35:19.428Z,100716.16
2023-01-02T05:35:51.557Z,100714.59
2023-01-02T05:36:24.909Z,100707.09
2023-01-02T05:36:56.723Z,100712.44
2023-01-02T05:37:30.349Z,100708.41
2023-01-02T05:38:02.567Z,100711.34
2023-01-02T05:38:35.291Z,100712.66
2023-01-02T05:39:14.883Z,100709.91
2023-01-02T05:39:46.751Z,100713.00
2023-01-02T05:40:18.842Z,100707.44
2023-01-02T05:41:03.431Z,100704.09
2023-01-02T05:41:35.572Z,100702.66
2023-01-02T05:42:07.427Z,100703.31
2023-01-02T05:42:39.275Z,100702.97
2023-01-02T05:43:11.104Z,100703.97
2023-01-02T05:43:43.075Z,100703.31
2023-01-02T05:44:14.924Z,100702.97
2023-01-02T05:44:46.780Z,100704.63
2023-01-02T05:45:18.724Z,100704.63
2023-01-02T05:45:50.539Z,100706.38
2023-01-02T05:46:22.429Z,100700.72
2023-01-02T05:46:54.669Z,100710.47
2023-01-02T05:47:26.654Z,100706.59
2023-01-02T05:47:58.507Z,100711.16
2023-01-02T05:48:30.347Z,100713.28
2023-01-02T05:49:10.171Z,100716.53
2023-01-02T05:49:41.996Z,100710.19
2023-01-02T05:50:13.899Z,100708.09
2023-01-02T05:50:45.716Z,100710.38
2023-01-02T05:51:18.025Z,100704.87
2023-01-02T05:51:49.893Z,100710.41
2023-01-02T05:52:22.531Z,100707.47
2023-01-02T05:52:56.304Z,100704.53
2023-01-02T05:53:28.555Z,100706.19
2023-01-02T05:54:00.833Z,100706.38
2023-01-02T05:54:32.852Z,100711.84
2023-01-02T05:55:05.071Z,100712.31
2023-01-02T05:55:37.140Z,100708.25
2023-01-02T05:56:11.582Z,100705.97
2023-01-02T05:56:43.479Z,100704.69
2023-01-02T05:57:17.146Z,100705.50
2023-01-02T05:57:49.416Z,100702.72
2023-01-02T05:58:21.244Z,100705.34
2023-01-02T05:58:53.538Z,100705.97
2023-01-02T05:59:25.455Z,100705.03
2023-01-02T05:59:57.329Z,100705.63
2023-01-02T06:00:29.483Z,100700.94
2023-01-02T06:01:09.242Z,100708.25
2023-01-02T06:01:41.253Z,100708.91
2023-01-02T06:02:15.403Z,100698.63
2023-01-02T06:02:48.585Z,100699.25
2023-01-02T06:03:20.594Z,100705.47
2023-01-02T06:03:55.022Z,100696.50
2023-01-02T06:04:26.965Z,100709.34
2023-01-02T06:04:58.806Z,100694.41
2023-01-02T06:05:30.674Z,100707.06
2023-01-02T06:06:10.340Z,100707.56
2023-01-02T06:06:42.319Z,100701.56
2023-01-02T06:07:14.159Z,100704.97
2023-01-02T06:07:46.868Z,100710.50
2023-01-02T06:08:18.732Z,100708.37
2023-01-02T06:08:50.958Z,100696.50
2023-01-02T06:09:22.809Z,100700.88
2023-01-02T06:09:54.653Z,100701.72
2023-01-02T06:10:26.599Z,100706.56
2023-01-02T06:10:58.491Z,100703.78
2023-01-02T06:11:31.393Z,100703.34
2023-01-02T06:12:03.379Z,100707.47
2023-01-02T06:12:35.240Z,100703.03
2023-01-02T06:13:07.055Z,100705.16
2023-01-02T06:13:39.478Z,100707.59
2023-01-02T06:14:11.643Z,100706.47
2023-01-02T06:14:43.485Z,100705.00
2023-01-02T06:15:15.448Z,100703.03
2023-01-02T06:15:47.341Z,100706.47
2023-01-02T06:16:19.208Z,100705.31
2023-01-02T06:16:51.371Z,100715.72
2023-01-02T06:17:23.229Z,100709.19
2023-01-02T06:17:55.089Z,100704.81
2023-01-02T06:18:28.085Z,100706.25
2023-01-02T06:18:59.947Z,100708.53
2023-01-02T06:19:31.828Z,100706.91
2023-01-02T06:20:04.006Z,100707.09
2023-01-02T06:20:35.851Z,100700.59
2023-01-02T06:21:13.339Z,100708.41
2023-01-02T06:21:45.238Z,100709.22
2023-01-02T06:22:17.402Z,100715.88
2023-01-02T06:22:49.288Z,100709.19
2023-01-02T06:23:21.156Z,100707.41
2023-01-02T06:23:57.750Z,100712.16
2023-01-02T06:24:29.600Z,100711.81
2023-01-02T06:25:01.418Z,100703.69
2023-01-02T06:25:34.884Z,100705.19
2023-01-02T06:26:10.744Z,100711.53
2023-01-02T06:26:42.644Z,100706.19
2023-01-02T06:27:14.535Z,100707.00
2023-01-02T06:27:46.697Z,100709.91
2023-01-02T06:28:18.549Z,100709.75
2023-01-02T06:28:52.627Z,100703.72
2023-01-02T06:29:24.574Z,100709.56
2023-01-02T06:29:56.442Z,100707.09
2023-01-02T06:30:28.279Z,100708.13
2023-01-02T06:31:05.441Z,100697.41
2023-01-02T06:31:39.835Z,100707.31
2023-01-02T06:32:12.193Z,100710.38
2023-01-02T06:32:44.034Z,100709.38
2023-01-02T06:33:16.185Z,100708.56
2023-01-02T06:33:56.745Z,100707.31
2023-01-02T06:34:28.723Z,100707.31
2023-01-02T06:35:01.225Z,100708.94
2023-01-02T06:35:33.147Z,100705.84
2023-01-02T06:36:18.683Z,100705.34
2023-01-02T06:36:50.560Z,100705.37
2023-01-02T06:37:22.450Z,100703.75
2023-01-02T06:37:54.292Z,100712.84
2023-01-02T06:38:27.375Z,100709.28
2023-01-02T06:38:59.239Z,100707.81
2023-01-02T06:39:31.087Z,100703.56
2023-01-02T06:40:02.967Z,100704.53
2023-01-02T06:40:34.880Z,100700.31
2023-01-02T06:41:08.883Z,100703.38
2023-01-02T06:41:41.251Z,100703.38
2023-01-02T06:42:13.941Z,100698.84
2023-01-02T06:42:45.901Z,100691.50
2023-01-02T06:43:17.771Z,100699.94
2023-01-02T06:43:51.135Z,100693.44
2023-01-02T06:44:22.966Z,100692.31
2023-01-02T06:44:55.346Z,100697.66
2023-01-02T06:45:27.287Z,100691.97
2023-01-02T06:46:01.403Z,100696.72
2023-01-02T06:46:33.367Z,100695.25
2023-01-02T06:47:05.326Z,100701.78
2023-01-02T06:47:37.382Z,100705.63
2023-01-02T06:48:09.179Z,100699.78
2023-01-02T06:48:42.266Z,100702.72
2023-01-02T06:49:14.491Z,100695.69
2023-01-02T06:49:46.504Z,100703.34
2023-01-02T06:50:19.154Z,100701.72
2023-01-02T06:50:53.897Z,100696.97
2023-01-02T06:51:25.868Z,100699.09
2023-01-02T06:51:57.912Z,100700.81
2023-01-02T06:52:30.071Z,100703.19